Time;durP1;ratioP1;P1;durP2;ratioP2;P2;SDS_P1;SDS_P2;PMS_P1;PMS_P2;Temp;Humidity;BMP_temperature;BMP_pressure;BME280_temperature;BME280_humidity;BME280_pressure;Samples;Min_cycle;Max_cycle;Signal;HPM_P1;HPM_P2
2023/05/14 08:22:46;;;;;;;0.77;0.77;;;;;;;;;;7398692;19;20232;-89
2023/05/14 11:31:24;;;;;;;0.47;0.47;;;;;;;;;;7395358;19;20168;-92
2023/05/14 11:37:37;;;;;;;0.70;0.70;;;;;;;;;;7386176;19;20129;-92
2023/05/14 11:40:08;;;;;;;0.60;0.60;;;;;;;;;;7404180;19;20149;-93
2023/05/14 11:42:50;;;;;;;0.57;0.57;;;;;;;;;;7394000;19;20141;-92
2023/05/14 11:45:26;;;;;;;0.63;0.63;;;;;;;;;;7403552;19;20147;-94
2023/05/14 11:47:55;;;;;;;0.70;0.70;;;;;;;;;;7419134;19;20193;-93
2023/05/14 11:50:25;;;;;;;0.65;0.65;;;;;;;;;;7419471;19;20161;-94
2023/05/14 11:52:55;;;;;;;0.85;0.85;;;;;;;;;;7414521;19;20156;-94
2023/05/14 11:55:22;;;;;;;0.57;0.57;;;;;;;;;;7411287;19;20147;-94
2023/05/14 12:02:04;;;;;;;0.52;0.52;;;;;;;;;;7431093;19;20131;-92
2023/05/14 14:56:58;;;;;;;0.80;0.80;;;;;;;;;;7402459;19;20129;-95
2023/05/14 14:59:28;;;;;;;0.38;0.38;;;;;;;;;;7400217;19;20166;-93
2023/05/14 15:01:55;;;;;;;0.40;0.40;;;;;;;;;;7409443;19;20157;-91
2023/05/14 15:04:22;;;;;;;0.30;0.30;;;;;;;;;;7410008;19;20164;-92
2023/05/14 15:06:49;;;;;;;0.50;0.50;;;;;;;;;;7409744;19;20244;-91
2023/05/14 15:09:15;;;;;;;0.30;0.30;;;;;;;;;;7387685;19;20169;-92
2023/05/14 15:11:43;;;;;;;0.70;0.70;;;;;;;;;;7388159;19;20132;-92
2023/05/14 15:14:12;;;;;;;0.40;0.40;;;;;;;;;;7383776;19;20591;-92
2023/05/14 15:16:43;;;;;;;0.40;0.40;;;;;;;;;;7387908;19;20145;-92
2023/05/14 15:19:23;;;;;;;0.68;0.68;;;;;;;;;;7389573;19;20137;-92
2023/05/14 15:22:25;;;;;;;0.35;0.35;;;;;;;;;;7390494;19;20144;-93
2023/05/14 15:25:15;;;;;;;0.47;0.45;;;;;;;;;;7399555;19;20172;-91
2023/05/14 15:27:52;;;;;;;0.60;0.60;;;;;;;;;;7404205;19;20176;-91
2023/05/14 15:30:23;;;;;;;0.40;0.40;;;;;;;;;;7412139;19;20157;-92
2023/05/14 15:32:54;;;;;;;0.40;0.40;;;;;;;;;;7413131;19;20133;-91
2023/05/14 15:35:21;;;;;;;0.30;0.30;;;;;;;;;;7402896;19;20151;-91
2023/05/14 15:38:01;;;;;;;0.30;0.30;;;;;;;;;;7408310;19;20149;-92
2023/05/14 15:40:33;;;;;;;0.55;0.55;;;;;;;;;;7412074;19;20141;-92
2023/05/14 15:43:03;;;;;;;0.30;0.30;;;;;;;;;;7406403;19;20133;-91
2023/05/14 15:45:30;;;;;;;0.93;0.55;;;;;;;;;;7418934;19;20177;-92
2023/05/14 15:47:57;;;;;;;0.35;0.35;;;;;;;;;;7420355;19;20153;-93
2023/05/14 15:50:26;;;;;;;0.40;0.40;;;;;;;;;;7417993;19;20133;-94
2023/05/14 15:52:53;;;;;;;0.30;0.30;;;;;;;;;;7398583;19;20132;-93
2023/05/14 15:55:20;;;;;;;0.30;0.30;;;;;;;;;;7398998;19;20497;-92
2023/05/14 15:57:55;;;;;;;1.65;0.52;;;;;;;;;;7395255;19;20509;-92
2023/05/14 16:00:23;;;;;;;0.30;0.30;;;;;;;;;;7402106;19;20171;-92
2023/05/14 16:02:51;;;;;;;1.67;0.63;;;;;;;;;;7400250;19;20144;-93
2023/05/14 16:05:18;;;;;;;0.32;0.32;;;;;;;;;;7398646;19;20144;-92
2023/05/14 16:07:50;;;;;;;0.70;0.70;;;;;;;;;;7399657;19;20156;-93
2023/05/14 16:10:25;;;;;;;0.60;0.60;;;;;;;;;;7396300;19;20151;-92
2023/05/14 16:12:53;;;;;;;1.35;0.55;;;;;;;;;;7398240;19;20484;-92
2023/05/14 16:15:19;;;;;;;0.40;0.40;;;;;;;;;;7397548;19;20179;-93
2023/05/14 16:17:46;;;;;;;0.40;0.40;;;;;;;;;;7394417;19;20161;-92
2023/05/14 16:20:14;;;;;;;0.30;0.30;;;;;;;;;;7402393;19;20244;-92
2023/05/14 16:22:40;;;;;;;0.30;0.30;;;;;;;;;;7398755;19;20140;-93
2023/05/14 16:25:07;;;;;;;0.60;0.60;;;;;;;;;;7395696;19;20163;-93
2023/05/14 16:27:34;;;;;;;0.85;0.57;;;;;;;;;;7397856;19;20153;-93
2023/05/14 16:30:00;;;;;;;0.55;0.55;;;;;;;;;;7404815;19;20145;-93
2023/05/14 16:32:27;;;;;;;0.98;0.93;;;;;;;;;;7404392;19;20140;-93
2023/05/14 16:34:55;;;;;;;0.63;0.60;;;;;;;;;;7399157;19;20169;-93
2023/05/14 16:37:22;;;;;;;0.32;0.32;;;;;;;;;;7397667;19;20153;-93
2023/05/14 16:39:49;;;;;;;0.75;0.75;;;;;;;;;;7393263;19;20141;-93
2023/05/14 16:42:16;;;;;;;0.60;0.60;;;;;;;;;;7402359;19;20137;-92
2023/05/14 16:44:42;;;;;;;0.30;0.30;;;;;;;;;;7417392;19;20137;-96
2023/05/14 16:47:09;;;;;;;0.45;0.45;;;;;;;;;;7429748;19;20585;-95
2023/05/14 16:49:36;;;;;;;0.38;0.38;;;;;;;;;;7424855;19;20143;-94
2023/05/14 16:52:03;;;;;;;0.30;0.30;;;;;;;;;;7422418;19;20133;-93
2023/05/14 16:54:30;;;;;;;0.30;0.30;;;;;;;;;;7430568;19;20143;-94
2023/05/14 16:56:56;;;;;;;0.60;0.60;;;;;;;;;;7425319;19;20149;-94
2023/05/14 16:59:24;;;;;;;1.00;0.70;;;;;;;;;;7410614;19;20125;-95
2023/05/14 17:01:50;;;;;;;0.30;0.30;;;;;;;;;;7395063;19;20161;-93
2023/05/14 17:04:17;;;;;;;0.60;0.60;;;;;;;;;;7401576;19;20164;-94
2023/05/14 17:06:44;;;;;;;0.50;0.50;;;;;;;;;;7414629;19;20212;-93
2023/05/14 17:09:11;;;;;;;0.40;0.40;;;;;;;;;;7397467;19;20514;-94
2023/05/14 17:11:38;;;;;;;0.30;0.30;;;;;;;;;;7396351;19;20155;-93
2023/05/14 17:14:05;;;;;;;1.20;0.82;;;;;;;;;;7396515;19;20133;-93
2023/05/14 17:16:32;;;;;;;0.40;0.40;;;;;;;;;;7392178;19;20154;-92
2023/05/14 17:18:58;;;;;;;0.40;0.40;;;;;;;;;;7390137;19;20212;-93
2023/05/14 17:21:25;;;;;;;0.30;0.30;;;;;;;;;;7391894;19;20152;-91
2023/05/14 17:23:52;;;;;;;0.75;0.75;;;;;;;;;;7391838;19;20173;-93
2023/05/14 17:26:20;;;;;;;0.63;0.60;;;;;;;;;;7400033;19;20513;-92
2023/05/14 17:28:46;;;;;;;0.50;0.50;;;;;;;;;;7392067;19;20145;-93
2023/05/14 17:31:13;;;;;;;0.52;0.52;;;;;;;;;;7393044;19;20146;-93
2023/05/14 17:33:40;;;;;;;0.40;0.40;;;;;;;;;;7391373;19;20173;-92
2023/05/14 17:36:07;;;;;;;0.30;0.30;;;;;;;;;;7387754;19;20597;-92
2023/05/14 17:38:34;;;;;;;0.30;0.30;;;;;;;;;;7389763;19;20173;-91
2023/05/14 17:41:00;;;;;;;0.40;0.40;;;;;;;;;;7388641;19;20510;-91
2023/05/14 17:43:30;;;;;;;0.30;0.30;;;;;;;;;;7396103;19;20192;-91
2023/05/14 17:45:56;;;;;;;0.30;0.30;;;;;;;;;;7396301;19;20139;-88
2023/05/14 17:48:51;;;;;;;1.13;0.75;;;;;;;;;;7391482;19;20677;-91
2023/05/14 17:51:20;;;;;;;0.53;0.50;;;;;;;;;;7394931;19;20152;-92
2023/05/14 17:53:47;;;;;;;0.83;0.83;;;;;;;;;;7394828;19;20145;-92
2023/05/14 17:56:17;;;;;;;0.30;0.30;;;;;;;;;;7396658;19;20132;-93
2023/05/14 17:58:44;;;;;;;1.23;0.77;;;;;;;;;;7394420;19;20519;-92
2023/05/14 18:01:11;;;;;;;0.63;0.63;;;;;;;;;;7394737;19;20141;-91
2023/05/14 18:03:38;;;;;;;0.30;0.30;;;;;;;;;;7396772;19;20141;-92
2023/05/14 18:06:05;;;;;;;0.30;0.30;;;;;;;;;;7395930;19;20589;-94
2023/05/14 18:08:31;;;;;;;0.30;0.30;;;;;;;;;;7397605;19;20164;-92
2023/05/14 18:10:59;;;;;;;0.30;0.30;;;;;;;;;;7395676;19;20137;-93
2023/05/14 18:13:26;;;;;;;0.30;0.30;;;;;;;;;;7400799;19;20281;-92
2023/05/14 18:15:55;;;;;;;0.37;0.37;;;;;;;;;;7394603;19;20152;-92
2023/05/14 18:18:25;;;;;;;0.70;0.60;;;;;;;;;;7395815;19;20153;-92
2023/05/14 18:20:51;;;;;;;0.53;0.53;;;;;;;;;;7392136;19;20461;-92
2023/05/14 18:23:27;;;;;;;0.40;0.40;;;;;;;;;;7390899;19;20156;-91
2023/05/14 18:25:54;;;;;;;0.93;0.70;;;;;;;;;;7392972;19;20128;-93
2023/05/14 18:28:21;;;;;;;0.30;0.30;;;;;;;;;;7390602;19;20168;-93
2023/05/14 18:30:48;;;;;;;0.73;0.73;;;;;;;;;;7389053;19;20501;-92
2023/05/14 18:33:15;;;;;;;0.40;0.40;;;;;;;;;;7397629;19;20144;-92
2023/05/14 18:35:42;;;;;;;0.37;0.37;;;;;;;;;;7385908;19;20144;-92
2023/05/14 18:38:10;;;;;;;0.30;0.30;;;;;;;;;;7387301;19;20164;-93
2023/05/14 18:40:37;;;;;;;0.83;0.63;;;;;;;;;;7394066;19;20153;-94
2023/05/14 18:43:19;;;;;;;0.30;0.30;;;;;;;;;;7399910;19;20141;-93
2023/05/14 18:46:02;;;;;;;1.67;0.77;;;;;;;;;;7402583;19;20149;-94
2023/05/14 18:48:33;;;;;;;0.50;0.50;;;;;;;;;;7400479;19;20157;-93
2023/05/14 18:51:00;;;;;;;0.50;0.50;;;;;;;;;;7401101;19;20133;-94
2023/05/14 18:53:28;;;;;;;0.30;0.30;;;;;;;;;;7397852;19;20133;-94
2023/05/14 18:55:55;;;;;;;0.53;0.53;;;;;;;;;;7399704;19;20160;-93
2023/05/14 18:58:21;;;;;;;0.60;0.60;;;;;;;;;;7397668;19;20512;-92
2023/05/14 19:00:48;;;;;;;0.20;0.20;;;;;;;;;;7400019;19;20577;-93
2023/05/14 19:03:15;;;;;;;0.40;0.40;;;;;;;;;;7405399;19;20149;-94
2023/05/14 19:05:42;;;;;;;0.37;0.37;;;;;;;;;;7397194;19;20140;-93
2023/05/14 19:08:08;;;;;;;0.47;0.47;;;;;;;;;;7398663;19;20165;-94
2023/05/14 19:10:35;;;;;;;0.40;0.40;;;;;;;;;;7398516;19;20447;-94
2023/05/14 19:13:02;;;;;;;0.30;0.30;;;;;;;;;;7396412;19;20160;-91
2023/05/14 19:15:29;;;;;;;2.37;0.87;;;;;;;;;;7399079;19;20139;-92
2023/05/14 19:17:56;;;;;;;0.47;0.47;;;;;;;;;;7396240;19;20156;-93
2023/05/14 19:20:22;;;;;;;0.40;0.40;;;;;;;;;;7393801;19;20169;-91
2023/05/14 19:22:49;;;;;;;0.30;0.30;;;;;;;;;;7407996;19;20141;-94
2023/05/14 19:25:16;;;;;;;0.40;0.40;;;;;;;;;;7405654;19;20130;-92
2023/05/14 19:27:43;;;;;;;0.63;0.63;;;;;;;;;;7396522;19;20534;-93
2023/05/14 19:30:13;;;;;;;0.60;0.60;;;;;;;;;;7404468;19;20303;-95
2023/05/14 19:32:39;;;;;;;0.60;0.60;;;;;;;;;;7398638;19;20148;-95
2023/05/14 19:35:06;;;;;;;0.30;0.30;;;;;;;;;;7398986;19;20150;-94
2023/05/14 19:37:33;;;;;;;0.50;0.50;;;;;;;;;;7400793;19;20175;-94
2023/05/14 19:40:00;;;;;;;0.30;0.30;;;;;;;;;;7402376;19;20133;-93
2023/05/14 19:42:26;;;;;;;0.57;0.57;;;;;;;;;;7400321;19;20145;-94
2023/05/14 19:44:54;;;;;;;0.83;0.67;;;;;;;;;;7406662;19;20176;-95
2023/05/14 19:47:21;;;;;;;1.33;1.10;;;;;;;;;;7413893;19;20204;-95
2023/05/14 19:49:51;;;;;;;0.30;0.30;;;;;;;;;;7420885;19;20145;-95
2023/05/14 19:52:18;;;;;;;1.20;0.63;;;;;;;;;;7421876;19;20169;-95
2023/05/14 19:54:47;;;;;;;0.90;0.83;;;;;;;;;;7420670;19;20133;-96
2023/05/14 19:57:15;;;;;;;0.37;0.37;;;;;;;;;;7416899;19;20197;-96
2023/05/14 19:59:54;;;;;;;0.30;0.30;;;;;;;;;;7418217;19;20145;-96
2023/05/14 20:02:44;;;;;;;1.13;1.00;;;;;;;;;;7418110;19;20148;-95
2023/05/14 20:05:17;;;;;;;0.70;0.70;;;;;;;;;;7414978;19;20247;-96
2023/05/14 20:07:56;;;;;;;0.57;0.57;;;;;;;;;;7419890;19;20161;-96
2023/05/14 20:10:37;;;;;;;0.40;0.40;;;;;;;;;;7423609;19;20148;-96
2023/05/14 20:13:08;;;;;;;0.40;0.40;;;;;;;;;;7425329;19;20176;-96
2023/05/14 20:15:35;;;;;;;0.40;0.40;;;;;;;;;;7424547;19;20169;-95
2023/05/14 20:18:02;;;;;;;0.30;0.30;;;;;;;;;;7422491;19;20180;-95
2023/05/14 20:20:29;;;;;;;1.20;0.50;;;;;;;;;;7418904;19;20201;-93
2023/05/14 20:22:58;;;;;;;0.30;0.30;;;;;;;;;;7408507;19;20140;-94
2023/05/14 20:25:25;;;;;;;0.63;0.57;;;;;;;;;;7409758;19;20157;-95
2023/05/14 20:27:54;;;;;;;0.30;0.30;;;;;;;;;;7412351;19;20156;-93
2023/05/14 20:30:28;;;;;;;0.30;0.30;;;;;;;;;;7408602;19;20143;-94
2023/05/14 20:32:56;;;;;;;0.40;0.40;;;;;;;;;;7408865;19;20137;-94
2023/05/14 20:35:23;;;;;;;0.60;0.60;;;;;;;;;;7405233;19;20155;-93
2023/05/14 20:37:50;;;;;;;0.30;0.30;;;;;;;;;;7405260;19;20196;-92
2023/05/14 20:40:16;;;;;;;0.73;0.70;;;;;;;;;;7411381;19;20143;-94
2023/05/14 20:42:43;;;;;;;0.50;0.50;;;;;;;;;;7413599;19;20129;-94
2023/05/14 20:45:10;;;;;;;0.40;0.40;;;;;;;;;;7409293;19;20145;-95
2023/05/14 20:47:37;;;;;;;0.30;0.30;;;;;;;;;;7411854;19;20161;-93
2023/05/14 20:50:04;;;;;;;0.30;0.30;;;;;;;;;;7404258;19;20605;-92
2023/05/14 20:52:34;;;;;;;0.20;0.20;;;;;;;;;;7401320;19;20145;-93
2023/05/14 20:55:07;;;;;;;0.30;0.30;;;;;;;;;;7402182;19;20144;-95
2023/05/14 20:57:36;;;;;;;1.70;0.40;;;;;;;;;;7404674;19;20168;-95
2023/05/14 21:00:06;;;;;;;0.37;0.37;;;;;;;;;;7400911;19;20137;-95
2023/05/14 21:02:33;;;;;;;0.30;0.30;;;;;;;;;;7400174;19;20238;-96
2023/05/14 21:05:00;;;;;;;0.50;0.50;;;;;;;;;;7409022;19;20155;-95
2023/05/14 21:07:27;;;;;;;0.50;0.50;;;;;;;;;;7414123;19;20165;-95
2023/05/14 21:09:54;;;;;;;0.40;0.40;;;;;;;;;;7415506;19;20144;-95
2023/05/14 21:12:21;;;;;;;0.50;0.50;;;;;;;;;;7421054;19;20162;-94
2023/05/14 21:14:48;;;;;;;0.30;0.30;;;;;;;;;;7411567;19;20149;-95
2023/05/14 21:17:14;;;;;;;0.40;0.40;;;;;;;;;;7409752;19;20192;-95
2023/05/14 21:19:41;;;;;;;0.40;0.40;;;;;;;;;;7411463;19;20137;-96
2023/05/14 21:22:08;;;;;;;0.40;0.40;;;;;;;;;;7411762;19;20132;-95
2023/05/14 21:24:34;;;;;;;0.30;0.30;;;;;;;;;;7412280;19;20195;-96
2023/05/14 21:27:01;;;;;;;1.23;0.67;;;;;;;;;;7411967;19;20165;-95
2023/05/14 21:29:28;;;;;;;0.33;0.33;;;;;;;;;;7409902;19;20165;-95
2023/05/14 21:31:54;;;;;;;0.40;0.40;;;;;;;;;;7409424;19;20145;-94
2023/05/14 21:34:21;;;;;;;0.67;0.67;;;;;;;;;;7430590;19;20133;-95
2023/05/14 21:36:48;;;;;;;0.80;0.80;;;;;;;;;;7425015;19;20157;-96
2023/05/14 21:39:40;;;;;;;0.80;0.80;;;;;;;;;;7422454;19;20137;-96
2023/05/14 21:45:50;;;;;;;0.73;0.73;;;;;;;;;;7422307;19;20153;-96
2023/05/14 21:48:22;;;;;;;1.10;1.00;;;;;;;;;;7420859;19;20160;-96
2023/05/14 21:50:49;;;;;;;0.50;0.50;;;;;;;;;;7422641;19;20141;-96
2023/05/14 21:53:15;;;;;;;0.57;0.57;;;;;;;;;;7422344;19;20157;-96
2023/05/14 21:55:42;;;;;;;0.77;0.50;;;;;;;;;;7423585;19;20145;-96
2023/05/14 21:58:09;;;;;;;0.40;0.40;;;;;;;;;;7427191;19;20141;-96
2023/05/14 22:00:40;;;;;;;1.33;0.40;;;;;;;;;;7428637;19;20148;-96
2023/05/14 22:03:08;;;;;;;0.63;0.63;;;;;;;;;;7427274;19;20195;-96
2023/05/14 22:05:35;;;;;;;0.20;0.20;;;;;;;;;;7425919;19;20153;-95
2023/05/14 22:08:01;;;;;;;0.50;0.50;;;;;;;;;;7420116;19;20160;-95
2023/05/14 22:10:30;;;;;;;0.73;0.73;;;;;;;;;;7428471;19;20165;-95
2023/05/14 22:16:37;;;;;;;0.30;0.30;;;;;;;;;;7429665;19;20120;-95
2023/05/14 22:19:19;;;;;;;0.20;0.20;;;;;;;;;;7428827;19;20135;-96
2023/05/14 22:21:54;;;;;;;0.47;0.47;;;;;;;;;;7427110;19;20128;-96
2023/05/14 22:25:04;;;;;;;0.30;0.30;;;;;;;;;;7429273;19;20132;-96
2023/05/14 22:27:52;;;;;;;0.37;0.37;;;;;;;;;;7424255;19;20189;-96
2023/05/14 22:30:20;;;;;;;0.30;0.30;;;;;;;;;;7419857;19;20161;-96
2023/05/14 22:32:46;;;;;;;0.30;0.30;;;;;;;;;;7423492;19;20137;-96
2023/05/14 22:35:13;;;;;;;0.30;0.30;;;;;;;;;;7424362;19;20140;-95
2023/05/14 22:37:40;;;;;;;0.40;0.40;;;;;;;;;;7421378;19;20157;-96
2023/05/14 22:40:07;;;;;;;0.30;0.30;;;;;;;;;;7422177;19;20137;-96
2023/05/14 22:42:34;;;;;;;0.40;0.40;;;;;;;;;;7422385;19;20164;-96
2023/05/14 22:45:01;;;;;;;0.40;0.40;;;;;;;;;;7419011;19;20133;-95
2023/05/14 22:47:30;;;;;;;0.40;0.40;;;;;;;;;;7420393;19;20169;-96
2023/05/14 22:50:02;;;;;;;0.40;0.40;;;;;;;;;;7421927;19;20154;-94
2023/05/14 22:52:37;;;;;;;0.30;0.30;;;;;;;;;;7422185;19;20157;-95
2023/05/14 22:55:39;;;;;;;0.60;0.60;;;;;;;;;;7421369;19;20188;-96
2023/05/14 22:58:27;;;;;;;0.60;0.60;;;;;;;;;;7421662;19;20152;-96
2023/05/14 23:01:15;;;;;;;0.30;0.30;;;;;;;;;;7422586;19;20168;-96
2023/05/14 23:03:58;;;;;;;0.30;0.30;;;;;;;;;;7423161;19;20153;-96
2023/05/14 23:09:20;;;;;;;1.03;0.40;;;;;;;;;;7424694;19;20148;-95
2023/05/14 23:11:46;;;;;;;0.30;0.30;;;;;;;;;;7423679;19;20165;-94
2023/05/14 23:14:13;;;;;;;0.40;0.40;;;;;;;;;;7417844;19;20141;-93
2023/05/14 23:16:40;;;;;;;0.70;0.70;;;;;;;;;;7407787;19;20141;-95
2023/05/14 23:19:06;;;;;;;0.30;0.30;;;;;;;;;;7399918;19;20165;-95
2023/05/14 23:21:33;;;;;;;0.30;0.30;;;;;;;;;;7403990;19;20137;-95
2023/05/14 23:24:00;;;;;;;0.30;0.30;;;;;;;;;;7409514;19;20141;-96
2023/05/14 23:26:27;;;;;;;0.30;0.30;;;;;;;;;;7401565;19;20153;-94
2023/05/14 23:28:53;;;;;;;0.43;0.43;;;;;;;;;;7410577;19;20140;-96
2023/05/14 23:31:20;;;;;;;0.37;0.37;;;;;;;;;;7416202;19;20148;-94
2023/05/14 23:33:47;;;;;;;0.40;0.40;;;;;;;;;;7414426;19;20616;-93
2023/05/14 23:36:14;;;;;;;0.30;0.30;;;;;;;;;;7408814;19;20141;-94
2023/05/14 23:38:44;;;;;;;0.43;0.43;;;;;;;;;;7392563;19;20193;-95
2023/05/14 23:41:11;;;;;;;0.30;0.30;;;;;;;;;;7398514;19;20126;-94
2023/05/14 23:43:37;;;;;;;0.40;0.40;;;;;;;;;;7407393;19;20607;-94
2023/05/14 23:46:04;;;;;;;0.57;0.57;;;;;;;;;;7411893;19;20140;-94
2023/05/14 23:48:31;;;;;;;0.60;0.60;;;;;;;;;;7403431;19;20177;-94
2023/05/14 23:50:58;;;;;;;0.30;0.30;;;;;;;;;;7401785;19;20166;-94
2023/05/14 23:53:24;;;;;;;0.50;0.50;;;;;;;;;;7400764;19;20129;-93
2023/05/14 23:55:51;;;;;;;0.30;0.30;;;;;;;;;;7403246;19;20528;-94
2023/05/14 23:58:22;;;;;;;0.30;0.30;;;;;;;;;;7404284;19;20153;-94
